To NAV CANADA Home Page Login to a new session Search on AWWS site Feedback and Comments Disclaimer Vers la page française équivalente Tips FAQ What's new on the site To the Forecasts and Observations / NOTAM section To "File a Flight Plan" website Publications and other links Update of the User's profile FIC Telephone Numbers My Weather Data Folder Route Weather Data Regional Weather Data Local Weather Data To the Forecasts and Observations / NOTAM section
Request Generated 07/04/2015 at 03:20:39 UTC . Weather information available at that time is displayed.

METAR/TAF

ARVIAT/NU    

METAR CYEK 040300Z AUTO 15010KT 9SM CLR 07/05 A2997 RMK SLP150=
METAR CYEK 040200Z AUTO 16010KT 9SM CLR 08/05 A2997 RMK SLP150=
METAR CYEK 040100Z AUTO 16009KT 9SM CLR 08/04 A2998 RMK SLP152=

TAF CYEK 032338Z 0400/0412 15012KT P6SM SCT060
RMK FCST BASED ON AUTO OBS. NXT FCST BY 040600Z=
Your time UTC time
Weather data provided by Environment Canada and NAV CANADA